createdAt,value
2019-04-25T00:01:01.175Z,1.37
2019-04-25T00:03:36.782Z,1.63
2019-04-25T00:06:21.573Z,1.63
2019-04-25T00:08:56.066Z,1.53
2019-04-25T00:11:48.130Z,1.90
2019-04-25T00:14:34.207Z,1.80
2019-04-25T00:17:08.092Z,1.77
2019-04-25T00:19:53.988Z,1.97
2019-04-25T00:22:46.027Z,2.30
2019-04-25T00:25:49.243Z,2.20
2019-04-25T00:28:41.996Z,2.07
2019-04-25T00:31:27.235Z,2.00
2019-04-25T00:34:12.887Z,2.30
2019-04-25T00:40:04.738Z,2.07
2019-04-25T00:42:38.914Z,2.73
2019-04-25T00:45:22.315Z,3.53
2019-04-25T00:47:55.657Z,5.30
2019-04-25T00:50:31.912Z,5.47
2019-04-25T00:53:06.812Z,6.53
2019-04-25T00:55:41.464Z,7.27
2019-04-25T00:58:45.037Z,8.57
2019-04-25T01:01:55.940Z,9.60
2019-04-25T01:04:33.604Z,10.30
2019-04-25T01:07:07.557Z,11.33
2019-04-25T01:09:42.317Z,11.53
2019-04-25T01:12:18.304Z,11.67
2019-04-25T01:14:53.518Z,12.70
2019-04-25T01:17:27.308Z,11.83
2019-04-25T01:20:04.093Z,12.87
2019-04-25T01:22:39.227Z,10.67
2019-04-25T01:25:13.903Z,10.30
2019-04-25T01:27:48.214Z,10.43
2019-04-25T01:33:15.905Z,10.37
2019-04-25T01:36:04.530Z,9.00
2019-04-25T01:39:00.284Z,9.23
2019-04-25T01:41:54.790Z,8.43
2019-04-25T01:44:39.493Z,7.87
2019-04-25T01:47:29.971Z,7.70
2019-04-25T01:50:13.887Z,8.13
2019-04-25T01:52:57.137Z,7.70
2019-04-25T01:55:51.786Z,8.30
2019-04-25T01:58:15.421Z,8.37
2019-04-25T02:00:51.427Z,7.83
2019-04-25T02:03:35.670Z,6.87
2019-04-25T02:06:10.360Z,7.60
2019-04-25T02:08:44.074Z,7.20
2019-04-25T02:11:45.941Z,7.10
2019-04-25T02:14:45.816Z,7.27
2019-04-25T02:17:19.705Z,6.53
2019-04-25T02:19:56.460Z,7.37
2019-04-25T02:22:35.710Z,6.70
2019-04-25T02:25:19.136Z,6.57
2019-04-25T02:27:55.884Z,6.60
2019-04-25T02:30:31.052Z,6.37
2019-04-25T02:33:08.776Z,5.93
2019-04-25T02:35:43.094Z,6.13
2019-04-25T02:38:16.945Z,6.40
2019-04-25T02:40:50.773Z,6.63
2019-04-25T02:43:26.615Z,6.70
2019-04-25T02:46:39.898Z,6.17
2019-04-25T02:49:35.471Z,6.47
2019-04-25T02:52:11.056Z,6.03
2019-04-25T02:54:44.772Z,6.73
2019-04-25T02:57:18.414Z,6.40
2019-04-25T02:59:54.818Z,6.60
2019-04-25T03:02:29.403Z,6.90
2019-04-25T03:05:14.067Z,6.80
2019-04-25T03:07:59.415Z,6.43
2019-04-25T03:10:34.901Z,6.20
2019-04-25T03:13:39.123Z,6.37
2019-04-25T03:16:13.956Z,5.83
2019-04-25T03:18:59.387Z,6.47
2019-04-25T03:21:54.871Z,6.30
2019-04-25T03:24:49.321Z,6.30
2019-04-25T03:27:22.845Z,6.47
2019-04-25T03:29:56.002Z,6.43
2019-04-25T03:32:38.996Z,7.10
2019-04-25T03:35:27.889Z,7.47
2019-04-25T03:38:10.265Z,7.17
2019-04-25T03:40:44.411Z,6.87
2019-04-25T03:43:27.189Z,6.23
2019-04-25T03:46:10.348Z,7.60
2019-04-25T03:48:53.948Z,7.70
2019-04-25T03:51:27.218Z,7.13
2019-04-25T03:54:01.675Z,8.03
2019-04-25T03:56:35.735Z,7.07
2019-04-25T03:59:10.571Z,7.40
2019-04-25T04:01:54.280Z,7.33
2019-04-25T04:04:28.176Z,6.80
2019-04-25T04:07:05.836Z,7.03
2019-04-25T04:09:46.040Z,6.43
2019-04-25T04:12:19.947Z,6.43
2019-04-25T04:14:54.455Z,6.50
2019-04-25T04:17:36.314Z,6.20
2019-04-25T04:20:27.528Z,6.53
2019-04-25T04:23:19.623Z,6.37
2019-04-25T04:26:16.955Z,5.90
2019-04-25T04:29:03.069Z,5.73
2019-04-25T04:31:36.912Z,5.27
2019-04-25T04:34:10.666Z,5.90
2019-04-25T04:36:46.567Z,5.60
2019-04-25T04:39:31.257Z,5.30
2019-04-25T04:42:04.863Z,5.30
2019-04-25T04:44:39.819Z,4.97
2019-04-25T04:47:15.325Z,5.10
2019-04-25T04:50:01.239Z,5.13
2019-04-25T04:52:44.128Z,5.40
2019-04-25T04:55:26.330Z,5.00
2019-04-25T04:58:01.474Z,5.20
2019-04-25T05:00:35.182Z,5.40
2019-04-25T05:03:17.166Z,5.57
2019-04-25T05:06:37.557Z,5.60
2019-04-25T05:09:16.530Z,5.10
2019-04-25T05:11:59.525Z,5.33
2019-04-25T05:14:33.728Z,5.40
2019-04-25T05:17:06.877Z,5.30
2019-04-25T05:19:40.306Z,5.07
2019-04-25T05:22:28.455Z,5.67
2019-04-25T05:25:01.638Z,4.77
2019-04-25T05:27:50.795Z,4.23
2019-04-25T05:30:26.702Z,4.60
2019-04-25T05:33:00.531Z,4.97
2019-04-25T05:35:44.152Z,4.27
2019-04-25T05:38:17.975Z,4.33
2019-04-25T05:40:58.118Z,4.20
2019-04-25T05:43:33.360Z,4.10
2019-04-25T05:46:07.645Z,3.30
2019-04-25T05:48:56.501Z,3.60
2019-04-25T05:51:39.554Z,3.30
2019-04-25T05:54:14.129Z,3.67
2019-04-25T05:56:47.298Z,3.13
2019-04-25T05:59:21.790Z,3.27
2019-04-25T06:02:10.208Z,3.40
2019-04-25T06:04:53.490Z,3.93
2019-04-25T06:07:27.907Z,3.50
2019-04-25T06:10:31.882Z,3.13
2019-04-25T06:13:30.144Z,3.40
2019-04-25T06:16:08.304Z,3.27
2019-04-25T06:18:54.793Z,2.97
2019-04-25T06:21:30.128Z,3.40
2019-04-25T06:24:26.235Z,2.83
2019-04-25T06:27:19.587Z,2.93
2019-04-25T06:30:04.426Z,3.27
2019-04-25T06:32:39.164Z,3.23
2019-04-25T06:35:26.629Z,3.10
2019-04-25T06:38:09.203Z,2.83
2019-04-25T06:40:43.767Z,3.10
2019-04-25T06:43:30.634Z,3.07
2019-04-25T06:46:41.057Z,3.30
2019-04-25T06:49:26.255Z,2.97
2019-04-25T06:52:01.858Z,3.30
2019-04-25T06:54:35.403Z,2.63
2019-04-25T06:57:08.951Z,3.10
2019-04-25T06:59:43.702Z,3.23
2019-04-25T07:02:17.403Z,2.97
2019-04-25T07:04:51.640Z,3.47
2019-04-25T07:07:35.067Z,3.13
2019-04-25T07:10:08.799Z,2.90
2019-04-25T07:12:42.323Z,2.70
2019-04-25T07:15:17.898Z,3.07
2019-04-25T07:17:54.142Z,3.00
2019-04-25T07:20:37.899Z,2.57
2019-04-25T07:23:11.734Z,2.80
2019-04-25T07:26:05.290Z,2.57
2019-04-25T07:28:46.961Z,2.90
2019-04-25T07:31:38.262Z,2.70
2019-04-25T07:34:15.836Z,2.80
2019-04-25T07:37:00.559Z,2.50
2019-04-25T07:39:35.582Z,2.50
2019-04-25T07:42:10.295Z,2.43
2019-04-25T07:44:51.711Z,2.40
2019-04-25T07:47:20.064Z,2.40
2019-04-25T07:49:54.217Z,2.13
2019-04-25T07:52:37.752Z,2.10
2019-04-25T07:55:23.427Z,2.20
2019-04-25T07:57:57.720Z,2.80
2019-04-25T08:00:31.426Z,2.30
2019-04-25T08:03:05.287Z,2.73
2019-04-25T08:05:48.476Z,2.67
2019-04-25T08:08:23.518Z,3.00
2019-04-25T08:11:09.643Z,2.50
2019-04-25T08:13:51.430Z,2.00
2019-04-25T08:16:28.858Z,2.53
2019-04-25T08:19:03.963Z,2.87
2019-04-25T08:21:47.359Z,2.37
2019-04-25T08:24:20.809Z,1.70
2019-04-25T08:26:54.024Z,2.40
2019-04-25T08:29:28.190Z,1.70
2019-04-25T08:32:01.790Z,1.60
2019-04-25T08:34:36.295Z,2.07
2019-04-25T08:37:18.257Z,1.77
2019-04-25T08:39:45.829Z,2.20
2019-04-25T08:42:35.827Z,1.23
2019-04-25T08:45:09.627Z,1.87
2019-04-25T08:47:55.329Z,1.73
2019-04-25T08:50:55.723Z,1.90
2019-04-25T08:53:51.494Z,2.27
2019-04-25T08:56:29.516Z,2.13
2019-04-25T08:59:32.793Z,2.10
2019-04-25T09:02:38.879Z,2.20
2019-04-25T09:05:36.079Z,1.60
2019-04-25T09:08:21.229Z,2.17
2019-04-25T09:11:03.850Z,1.70
2019-04-25T09:13:38.645Z,2.00
2019-04-25T09:16:24.116Z,1.70
2019-04-25T09:18:57.284Z,1.90
2019-04-25T09:21:30.559Z,1.83
2019-04-25T09:24:13.675Z,2.30
2019-04-25T09:26:46.974Z,1.70
2019-04-25T09:29:29.296Z,1.50
2019-04-25T09:32:03.733Z,1.70
2019-04-25T09:34:38.111Z,1.60
2019-04-25T09:37:14.248Z,1.63
2019-04-25T09:40:04.261Z,1.30
2019-04-25T09:42:37.959Z,1.83
2019-04-25T09:45:24.733Z,2.70
2019-04-25T09:48:00.364Z,2.27
2019-04-25T09:51:05.753Z,1.80
2019-04-25T09:54:09.943Z,1.50
2019-04-25T09:56:47.199Z,1.40
2019-04-25T09:59:28.143Z,2.00
2019-04-25T10:01:57.925Z,1.93
2019-04-25T10:04:31.251Z,1.50
2019-04-25T10:07:14.335Z,2.07
2019-04-25T10:09:58.285Z,1.40
2019-04-25T10:12:44.209Z,1.37
2019-04-25T10:16:01.069Z,1.60
2019-04-25T10:18:35.123Z,1.70
2019-04-25T10:21:12.145Z,1.83
2019-04-25T10:23:46.755Z,1.83
2019-04-25T10:26:22.909Z,1.57
2019-04-25T10:29:07.858Z,1.80
2019-04-25T10:31:41.149Z,1.60
2019-04-25T10:34:14.484Z,1.20
2019-04-25T10:36:48.990Z,1.40
2019-04-25T10:39:23.851Z,1.20
2019-04-25T10:41:57.108Z,2.23
2019-04-25T10:44:30.907Z,1.33
2019-04-25T10:47:04.612Z,1.23
2019-04-25T10:49:37.848Z,2.10
2019-04-25T10:52:11.822Z,1.50
2019-04-25T10:54:46.661Z,1.40
2019-04-25T10:57:20.204Z,1.20
2019-04-25T11:00:05.623Z,1.10
2019-04-25T11:02:29.943Z,1.30
2019-04-25T11:05:14.118Z,1.20
2019-04-25T11:07:48.653Z,1.50
2019-04-25T11:10:23.913Z,1.40
2019-04-25T11:12:57.873Z,1.23
2019-04-25T11:15:31.687Z,0.80
2019-04-25T11:18:05.259Z,1.27
2019-04-25T11:20:38.896Z,1.23
2019-04-25T11:23:13.886Z,1.47
2019-04-25T11:25:47.891Z,1.40
2019-04-25T11:28:23.445Z,1.60
2019-04-25T11:31:07.944Z,2.03
2019-04-25T11:33:55.654Z,1.40
2019-04-25T11:36:38.702Z,1.10
2019-04-25T11:39:32.578Z,1.57
2019-04-25T11:42:29.438Z,1.53
2019-04-25T11:45:14.494Z,1.30
2019-04-25T11:48:03.273Z,1.23
2019-04-25T11:50:51.019Z,1.40
2019-04-25T11:53:34.321Z,1.23
2019-04-25T11:56:17.506Z,1.00
2019-04-25T11:58:51.660Z,1.40
2019-04-25T12:01:37.678Z,2.00
2019-04-25T12:04:21.241Z,1.10
2019-04-25T12:06:55.127Z,1.27
2019-04-25T12:09:28.676Z,1.30
2019-04-25T12:12:03.552Z,1.30
2019-04-25T12:14:38.387Z,1.30
2019-04-25T12:17:21.023Z,1.40
2019-04-25T12:20:05.187Z,1.70
2019-04-25T12:22:48.301Z,2.20
2019-04-25T12:25:23.719Z,1.27
2019-04-25T12:27:57.266Z,1.37
2019-04-25T12:30:38.059Z,1.90
2019-04-25T12:33:21.018Z,1.20
2019-04-25T12:36:03.421Z,1.13
2019-04-25T12:38:46.317Z,1.30
2019-04-25T12:41:19.982Z,1.23
2019-04-25T12:44:12.051Z,1.40
2019-04-25T12:46:46.137Z,1.10
2019-04-25T12:49:19.972Z,1.33
2019-04-25T12:51:53.469Z,1.10
2019-04-25T12:54:27.402Z,1.13
2019-04-25T12:57:09.731Z,1.40
2019-04-25T12:59:45.016Z,1.00
2019-04-25T13:02:18.587Z,1.10
2019-04-25T13:04:55.453Z,1.40
2019-04-25T13:07:28.965Z,1.27
2019-04-25T13:10:02.932Z,1.00
2019-04-25T13:12:37.462Z,1.90
2019-04-25T13:15:11.177Z,1.50
2019-04-25T13:17:45.204Z,2.07
2019-04-25T13:20:19.037Z,1.10
2019-04-25T13:23:03.249Z,1.30
2019-04-25T13:25:36.860Z,1.00
2019-04-25T13:31:27.769Z,1.50
2019-04-25T13:34:35.696Z,1.20
2019-04-25T13:37:17.469Z,1.30
2019-04-25T13:40:00.555Z,1.30
2019-04-25T13:42:45.242Z,1.07
2019-04-25T13:45:33.324Z,1.43
2019-04-25T13:48:25.585Z,1.50
2019-04-25T13:51:07.525Z,2.03
2019-04-25T13:53:50.868Z,2.62
2019-04-25T13:56:40.414Z,1.20
2019-04-25T13:59:12.677Z,1.00
2019-04-25T14:01:46.948Z,1.27
2019-04-25T14:04:21.019Z,1.00
2019-04-25T14:06:54.584Z,1.67
2019-04-25T14:09:29.912Z,1.00
2019-04-25T14:12:04.049Z,0.70
2019-04-25T14:14:47.140Z,1.00
2019-04-25T14:17:48.967Z,1.07
2019-04-25T14:20:32.686Z,0.88
2019-04-25T14:23:08.380Z,0.88
2019-04-25T14:25:42.788Z,1.05
2019-04-25T14:28:31.792Z,0.80
2019-04-25T14:31:35.359Z,1.20
2019-04-25T14:34:07.500Z,0.80
2019-04-25T14:36:41.159Z,1.20
2019-04-25T14:39:16.072Z,1.00
2019-04-25T14:41:49.345Z,1.17
2019-04-25T14:44:23.578Z,1.02
2019-04-25T14:46:57.117Z,1.10
2019-04-25T14:49:30.661Z,1.30
2019-04-25T14:52:03.844Z,0.90
2019-04-25T14:55:03.757Z,1.00
2019-04-25T14:57:38.025Z,0.98
2019-04-25T15:00:30.314Z,0.93
2019-04-25T15:03:05.724Z,1.07
2019-04-25T15:05:41.962Z,1.00
2019-04-25T15:08:16.466Z,0.78
2019-04-25T15:10:50.228Z,1.00
2019-04-25T15:13:33.051Z,1.10
2019-04-25T15:16:07.186Z,0.90
2019-04-25T15:18:56.295Z,1.22
2019-04-25T15:21:38.952Z,1.10
2019-04-25T15:24:27.508Z,1.10
2019-04-25T15:27:01.715Z,1.40
2019-04-25T15:29:44.545Z,1.20
2019-04-25T15:32:30.991Z,1.30
2019-04-25T15:35:04.977Z,1.45
2019-04-25T15:37:43.358Z,1.20
2019-04-25T15:40:31.271Z,1.20
2019-04-25T15:43:29.731Z,1.17
2019-04-25T15:46:32.305Z,1.20
2019-04-25T15:49:05.528Z,1.20
2019-04-25T15:51:39.456Z,1.02
2019-04-25T15:54:12.730Z,1.00
2019-04-25T15:56:46.227Z,1.27
2019-04-25T15:59:20.105Z,0.82
2019-04-25T16:01:53.701Z,0.93
2019-04-25T16:04:28.216Z,1.00
2019-04-25T16:07:17.279Z,1.00
2019-04-25T16:09:59.432Z,1.10
2019-04-25T16:12:32.879Z,1.00
2019-04-25T16:15:06.750Z,1.30
2019-04-25T16:17:41.920Z,1.30
2019-04-25T16:20:15.102Z,1.17
2019-04-25T16:22:48.912Z,1.00
2019-04-25T16:25:23.235Z,0.90
2019-04-25T16:28:05.746Z,0.90
2019-04-25T16:30:39.094Z,1.00
2019-04-25T16:33:12.637Z,0.97
2019-04-25T16:35:45.959Z,1.00
2019-04-25T16:38:20.141Z,1.00
2019-04-25T16:40:53.300Z,1.10
2019-04-25T16:43:28.617Z,1.00
2019-04-25T16:46:24.582Z,1.23
2019-04-25T16:48:58.543Z,1.20
2019-04-25T16:51:31.703Z,1.03
2019-04-25T16:54:05.712Z,1.05
2019-04-25T16:56:39.490Z,1.00
2019-04-25T16:59:17.480Z,1.10
2019-04-25T17:01:52.760Z,0.90
2019-04-25T17:04:25.998Z,1.40
2019-04-25T17:07:00.067Z,1.10
2019-04-25T17:09:32.187Z,1.20
2019-04-25T17:12:07.671Z,1.00
2019-04-25T17:15:05.455Z,1.37
2019-04-25T17:18:12.425Z,1.10
2019-04-25T17:21:04.536Z,1.07
2019-04-25T17:23:38.034Z,0.87
2019-04-25T17:26:11.850Z,1.17
2019-04-25T17:28:56.045Z,0.90
2019-04-25T17:32:03.719Z,0.90
2019-04-25T17:34:54.234Z,1.13
2019-04-25T17:37:36.235Z,0.80
2019-04-25T17:40:28.759Z,1.10
2019-04-25T17:43:10.948Z,0.87
2019-04-25T17:45:37.313Z,1.10
2019-04-25T17:48:09.341Z,1.00
2019-04-25T17:50:43.889Z,1.00
2019-04-25T17:53:26.357Z,0.90
2019-04-25T17:56:00.193Z,1.00
2019-04-25T17:58:43.339Z,1.10
2019-04-25T18:01:25.391Z,1.20
2019-04-25T18:03:58.864Z,1.10
2019-04-25T18:06:32.028Z,1.10
2019-04-25T18:09:21.368Z,1.00
2019-04-25T18:11:54.894Z,0.90
2019-04-25T18:14:30.656Z,0.83
2019-04-25T18:17:04.279Z,1.20
2019-04-25T18:19:42.621Z,1.20
2019-04-25T18:22:35.393Z,1.13
2019-04-25T18:25:36.936Z,1.10
2019-04-25T18:28:32.337Z,1.10
2019-04-25T18:31:07.093Z,1.00
2019-04-25T18:33:40.337Z,1.00
2019-04-25T18:36:36.167Z,1.23
2019-04-25T18:39:37.824Z,1.37
2019-04-25T18:42:33.166Z,1.20
2019-04-25T18:45:28.140Z,1.67
2019-04-25T18:48:14.798Z,1.20
2019-04-25T18:50:50.048Z,1.40
2019-04-25T18:53:40.978Z,1.20
2019-04-25T18:56:26.336Z,1.40
2019-04-25T18:59:45.990Z,1.23
2019-04-25T19:02:39.783Z,1.23
2019-04-25T19:05:23.335Z,1.30
2019-04-25T19:07:56.677Z,1.07
2019-04-25T19:10:40.813Z,1.20
2019-04-25T19:13:18.016Z,2.77
2019-04-25T19:15:51.919Z,7.50
2019-04-25T19:18:29.702Z,7.27
2019-04-25T19:21:02.992Z,5.37
2019-04-25T19:23:46.144Z,2.97
2019-04-25T19:26:19.382Z,2.00
2019-04-25T19:29:06.536Z,1.27
2019-04-25T19:31:40.903Z,1.10
2019-04-25T19:34:24.256Z,1.17
2019-04-25T19:37:06.782Z,1.10
2019-04-25T19:39:42.815Z,1.03
2019-04-25T19:42:23.224Z,0.80
2019-04-25T19:44:58.825Z,1.10
2019-04-25T19:47:31.989Z,1.20
2019-04-25T19:50:05.978Z,1.10
2019-04-25T19:52:49.727Z,1.10
2019-04-25T19:55:22.906Z,1.10
2019-04-25T19:58:06.419Z,1.00
2019-04-25T20:00:39.883Z,1.10
2019-04-25T20:03:28.817Z,1.13
2019-04-25T20:06:44.025Z,0.83
2019-04-25T20:09:37.053Z,1.20
2019-04-25T20:12:11.093Z,1.00
2019-04-25T20:17:40.097Z,0.80
2019-04-25T20:20:28.458Z,0.80
2019-04-25T20:23:02.921Z,0.90
2019-04-25T20:25:36.451Z,1.20
2019-04-25T20:28:10.328Z,1.00
2019-04-25T20:30:44.556Z,0.80
2019-04-25T20:33:19.293Z,1.00
2019-04-25T20:35:53.281Z,1.00
2019-04-25T20:38:27.251Z,1.10
2019-04-25T20:41:09.722Z,1.10
2019-04-25T20:43:54.983Z,0.70
2019-04-25T20:46:39.831Z,1.23
2019-04-25T20:49:24.709Z,0.90
2019-04-25T20:51:57.914Z,0.93
2019-04-25T20:54:32.046Z,1.20
2019-04-25T20:57:15.001Z,1.17
2019-04-25T20:59:58.106Z,1.10
2019-04-25T21:02:41.785Z,1.00
2019-04-25T21:05:16.358Z,1.03
2019-04-25T21:07:53.273Z,1.00
2019-04-25T21:10:29.306Z,1.20
2019-04-25T21:13:06.068Z,1.20
2019-04-25T21:16:10.041Z,0.90
2019-04-25T21:18:51.102Z,1.10
2019-04-25T21:21:24.952Z,1.20
2019-04-25T21:24:01.693Z,1.30
2019-04-25T21:26:34.924Z,1.17
2019-04-25T21:29:12.564Z,1.20
2019-04-25T21:31:46.353Z,1.00
2019-04-25T21:34:41.440Z,0.87
2019-04-25T21:37:17.207Z,1.10
2019-04-25T21:40:00.989Z,1.20
2019-04-25T21:42:43.042Z,1.00
2019-04-25T21:45:18.425Z,1.40
2019-04-25T21:47:52.716Z,0.90
2019-04-25T21:50:27.129Z,1.20
2019-04-25T21:53:01.304Z,1.10
2019-04-25T21:55:36.646Z,1.07
2019-04-25T21:58:26.009Z,1.10
2019-04-25T22:01:06.116Z,1.17
2019-04-25T22:03:56.418Z,1.23
2019-04-25T22:06:45.313Z,1.00
2019-04-25T22:09:19.896Z,0.90
2019-04-25T22:11:54.765Z,1.00
2019-04-25T22:14:29.243Z,1.00
2019-04-25T22:17:04.338Z,1.20
2019-04-25T22:19:37.910Z,0.83
2019-04-25T22:22:11.653Z,1.17
2019-04-25T22:24:51.225Z,1.43
2019-04-25T22:27:29.784Z,1.13
2019-04-25T22:30:03.981Z,1.03
2019-04-25T22:33:07.802Z,1.13
2019-04-25T22:36:02.139Z,1.10
2019-04-25T22:38:35.993Z,1.10
2019-04-25T22:41:09.893Z,1.00
2019-04-25T22:43:50.559Z,1.20
2019-04-25T22:46:27.235Z,1.00
2019-04-25T22:49:12.507Z,1.10
2019-04-25T22:51:46.003Z,1.20
2019-04-25T22:54:19.768Z,0.83
2019-04-25T22:56:54.882Z,1.20
2019-04-25T22:59:28.341Z,1.13
2019-04-25T23:02:19.948Z,1.40
2019-04-25T23:05:18.556Z,1.10
2019-04-25T23:07:52.613Z,1.10
2019-04-25T23:10:26.361Z,1.03
2019-04-25T23:13:00.188Z,1.10
2019-04-25T23:15:34.140Z,1.20
2019-04-25T23:18:16.461Z,1.07
2019-04-25T23:20:51.073Z,1.00
2019-04-25T23:23:24.491Z,1.00
2019-04-25T23:26:21.808Z,1.30
2019-04-25T23:29:19.512Z,1.10
2019-04-25T23:31:53.127Z,1.00
2019-04-25T23:34:39.152Z,1.10
2019-04-25T23:37:21.519Z,0.97
2019-04-25T23:39:55.741Z,1.30
2019-04-25T23:42:38.429Z,1.10
2019-04-25T23:45:23.665Z,1.10
2019-04-25T23:48:06.222Z,1.50
2019-04-25T23:50:41.997Z,1.40
2019-04-25T23:53:24.375Z,1.40
2019-04-25T23:55:58.340Z,1.50
2019-04-25T23:58:41.810Z,1.57
